Time;durP1;ratioP1;P1;durP2;ratioP2;P2;SDS_P1;SDS_P2;PMS_P1;PMS_P2;Temp;Humidity;BMP_temperature;BMP_pressure;BME280_temperature;BME280_humidity;BME280_pressure;Samples;Min_cycle;Max_cycle;Signal;HPM_P1;HPM_P2
2023/05/27 00:01:39;;;;;;;8.90;4.07;;;;;;;11.78;78.29;102936.44;5024370;28;20124;-80
2023/05/27 00:04:04;;;;;;;8.55;3.70;;;;;;;11.70;78.98;102928.88;5020219;28;20112;-80
2023/05/27 00:06:30;;;;;;;11.00;3.80;;;;;;;11.60;79.88;102939.31;5008608;28;20031;-80
2023/05/27 00:08:55;;;;;;;13.82;4.03;;;;;;;11.64;79.75;102930.22;5003509;28;20030;-80
2023/05/27 00:11:21;;;;;;;12.70;3.40;;;;;;;11.60;79.68;102936.50;5013371;28;20025;-80
2023/05/27 00:13:46;;;;;;;4.50;2.85;;;;;;;11.54;80.22;102932.22;5014284;28;20041;-80
2023/05/27 00:16:12;;;;;;;8.80;5.10;;;;;;;11.50;80.38;102931.25;5011830;28;20037;-80
2023/05/27 00:18:38;;;;;;;11.32;3.33;;;;;;;11.64;79.39;102925.44;5015262;28;20488;-80
2023/05/27 00:21:04;;;;;;;8.80;4.40;;;;;;;11.58;79.18;102922.00;5005485;28;20086;-80
2023/05/27 00:23:29;;;;;;;15.60;4.32;;;;;;;11.54;79.50;102926.63;5021814;28;20026;-80
2023/05/27 00:25:54;;;;;;;9.98;3.65;;;;;;;11.60;79.35;102919.69;5015017;28;20038;-80
2023/05/27 00:28:20;;;;;;;11.35;3.47;;;;;;;11.59;79.54;102923.66;4987515;28;20103;-80
2023/05/27 00:30:45;;;;;;;7.03;2.80;;;;;;;11.47;80.15;102920.72;5016279;28;20021;-80
2023/05/27 00:33:11;;;;;;;7.28;3.05;;;;;;;11.57;79.41;102909.16;5022437;28;20029;-79
2023/05/27 00:35:36;;;;;;;12.35;3.70;;;;;;;11.35;80.57;102906.56;5021941;28;20132;-80
2023/05/27 00:38:04;;;;;;;12.23;4.38;;;;;;;11.26;81.02;102905.75;5012861;28;20021;-80
2023/05/27 00:40:30;;;;;;;11.57;3.30;;;;;;;11.38;80.50;102911.50;5002381;28;20030;-80
2023/05/27 00:42:56;;;;;;;6.50;2.97;;;;;;;11.37;80.66;102904.25;5011862;28;20481;-80
2023/05/27 00:45:21;;;;;;;13.23;3.35;;;;;;;11.25;80.46;102895.69;5001027;28;20545;-80
2023/05/27 00:47:47;;;;;;;9.93;3.30;;;;;;;11.35;80.46;102906.56;5020764;28;20079;-80
2023/05/27 00:50:12;;;;;;;7.93;3.75;;;;;;;11.30;80.63;102895.50;5017547;28;20084;-80
2023/05/27 00:52:38;;;;;;;8.55;3.45;;;;;;;11.34;80.54;102904.91;5024867;28;20036;-79
2023/05/27 00:55:05;;;;;;;11.63;3.55;;;;;;;11.25;80.55;102895.69;4994190;28;20372;-80
2023/05/27 00:57:30;;;;;;;11.93;3.03;;;;;;;11.12;81.55;102901.16;5013187;28;20505;-80
2023/05/27 00:59:55;;;;;;;11.25;3.60;;;;;;;11.20;81.16;102905.13;5017595;28;20125;-79
2023/05/27 01:02:22;;;;;;;8.15;3.20;;;;;;;11.16;81.80;102902.16;4998692;28;20055;-80
2023/05/27 01:04:48;;;;;;;11.10;3.75;;;;;;;11.06;81.92;102902.50;5016185;28;20179;-80
2023/05/27 01:07:29;;;;;;;10.20;3.17;;;;;;;11.10;81.57;102903.47;5017140;28;20482;-79
2023/05/27 01:10:22;;;;;;;6.90;3.17;;;;;;;11.08;81.71;102902.16;4990754;28;20030;-81
2023/05/27 01:12:57;;;;;;;4.15;2.55;;;;;;;11.06;81.70;102893.25;5019869;28;20037;-81
2023/05/27 01:15:23;;;;;;;5.63;3.03;;;;;;;10.98;82.97;102892.09;5023935;28;20084;-81
2023/05/27 01:17:54;;;;;;;5.18;2.70;;;;;;;11.16;81.17;102892.91;5021259;28;20113;-81
2023/05/27 01:20:20;;;;;;;9.13;3.42;;;;;;;11.02;82.09;102893.09;4999488;28;20053;-80
2023/05/27 01:22:47;;;;;;;10.85;3.33;;;;;;;10.95;82.29;102895.59;5019055;28;20498;-80
2023/05/27 01:25:13;;;;;;;6.57;2.80;;;;;;;10.88;83.23;102893.28;4998163;28;20480;-80
2023/05/27 01:27:40;;;;;;;9.48;3.88;;;;;;;11.00;82.55;102901.00;5013303;28;20028;-80
2023/05/27 01:30:06;;;;;;;7.68;3.15;;;;;;;10.79;83.85;102889.66;5020493;28;20029;-80
2023/05/27 01:32:48;;;;;;;10.30;3.67;;;;;;;10.91;83.13;102897.41;5015596;28;20341;-80
2023/05/27 01:35:44;;;;;;;8.52;3.45;;;;;;;10.80;83.92;102896.91;5012515;28;21089;-79
2023/05/27 01:38:14;;;;;;;6.45;3.20;;;;;;;10.83;83.48;102904.66;5019075;28;20120;-80
2023/05/27 01:40:40;;;;;;;8.38;4.05;;;;;;;10.75;84.39;102911.91;5023087;28;20037;-80
2023/05/27 01:43:07;;;;;;;8.95;3.22;;;;;;;10.79;83.97;102909.25;5004323;28;20583;-80
2023/05/27 01:45:33;;;;;;;13.52;3.17;;;;;;;10.80;83.97;102901.69;5022956;28;20387;-79
2023/05/27 01:47:59;;;;;;;11.98;3.45;;;;;;;10.75;84.05;102895.13;5021515;28;20212;-79
2023/05/27 01:50:25;;;;;;;10.48;3.50;;;;;;;10.67;84.70;102895.13;5002232;28;20021;-79
2023/05/27 01:52:51;;;;;;;10.57;3.75;;;;;;;10.62;85.65;102900.88;5016788;28;20087;-80
2023/05/27 01:55:17;;;;;;;8.38;3.42;;;;;;;10.69;83.76;102896.44;5003375;28;20444;-80
2023/05/27 01:57:43;;;;;;;7.50;3.20;;;;;;;10.62;84.83;102890.47;5014513;28;20021;-79
2023/05/27 02:00:09;;;;;;;8.95;3.22;;;;;;;10.67;84.21;102895.94;5017089;28;20072;-80
2023/05/27 02:02:34;;;;;;;10.30;4.15;;;;;;;10.73;83.44;102890.97;5001808;28;20112;-79
2023/05/27 02:05:00;;;;;;;12.38;3.42;;;;;;;10.54;85.07;102883.75;5018055;28;20800;-80
2023/05/27 02:07:26;;;;;;;12.35;3.67;;;;;;;10.65;83.75;102886.22;4994901;28;20021;-80
2023/05/27 02:09:52;;;;;;;8.85;3.55;;;;;;;10.58;84.38;102879.13;5014940;28;20443;-79
2023/05/27 02:12:17;;;;;;;9.05;4.03;;;;;;;10.42;85.86;102877.16;5011829;28;20026;-79
2023/05/27 02:14:44;;;;;;;11.52;3.65;;;;;;;10.48;85.65;102887.03;5014463;28;20064;-79
2023/05/27 02:17:10;;;;;;;11.98;3.58;;;;;;;10.52;85.15;102871.19;4995404;28;20030;-79
2023/05/27 02:19:36;;;;;;;11.65;3.78;;;;;;;10.35;86.11;102874.81;5014647;28;20033;-79
2023/05/27 02:22:01;;;;;;;12.73;3.33;;;;;;;10.57;85.07;102876.66;5004178;28;20025;-79
2023/05/27 02:24:27;;;;;;;7.28;3.03;;;;;;;10.52;84.51;102885.19;5022597;28;20032;-79
2023/05/27 02:26:52;;;;;;;12.65;3.90;;;;;;;10.37;86.80;102881.75;5022363;28;20104;-80
2023/05/27 02:29:17;;;;;;;17.23;4.00;;;;;;;10.41;85.67;102881.91;5010263;28;20048;-79
2023/05/27 02:31:43;;;;;;;9.65;3.83;;;;;;;10.48;85.26;102875.84;5015705;28;20025;-79
2023/05/27 02:34:08;;;;;;;11.05;3.78;;;;;;;10.47;85.17;102877.78;5016759;28;20053;-79
2023/05/27 02:36:36;;;;;;;14.68;3.80;;;;;;;10.35;85.97;102870.06;5020084;28;20025;-79
2023/05/27 02:39:02;;;;;;;11.95;3.13;;;;;;;10.24;86.74;102877.06;4998442;28;20037;-79
2023/05/27 02:41:27;;;;;;;10.52;4.03;;;;;;;10.17;87.21;102871.16;5007171;28;20480;-79
2023/05/27 02:43:53;;;;;;;12.02;3.05;;;;;;;10.31;86.38;102874.66;5017564;28;20120;-79
2023/05/27 02:46:18;;;;;;;9.52;3.60;;;;;;;10.39;85.86;102878.59;5014334;28;20041;-79
2023/05/27 02:48:44;;;;;;;8.95;3.15;;;;;;;10.40;84.91;102877.47;4999508;28;20029;-79
2023/05/27 02:51:09;;;;;;;9.38;2.95;;;;;;;10.36;85.52;102880.09;4996435;28;20448;-79
2023/05/27 02:53:34;;;;;;;11.00;3.92;;;;;;;10.25;85.90;102884.34;5017837;28;20699;-79
2023/05/27 02:56:00;;;;;;;11.07;3.92;;;;;;;10.12;87.68;102886.13;5003887;28;20496;-79
2023/05/27 02:58:25;;;;;;;16.98;3.92;;;;;;;10.26;86.52;102877.56;5001899;28;20399;-79
2023/05/27 03:00:50;;;;;;;7.38;3.35;;;;;;;10.24;86.47;102879.06;5002776;28;20479;-79
2023/05/27 03:03:17;;;;;;;7.63;3.63;;;;;;;10.21;87.37;102874.94;5015568;28;20026;-79
2023/05/27 03:05:42;;;;;;;10.15;3.20;;;;;;;10.14;87.05;102874.59;5016097;28;20519;-79
2023/05/27 03:08:07;;;;;;;7.65;3.25;;;;;;;10.11;87.69;102875.25;4999350;28;20375;-79
2023/05/27 03:10:33;;;;;;;9.63;4.07;;;;;;;10.18;86.41;102882.03;5017257;28;20068;-79
2023/05/27 03:12:59;;;;;;;4.68;3.28;;;;;;;10.15;87.86;102887.44;4996745;28;20056;-79
2023/05/27 03:15:24;;;;;;;11.60;3.72;;;;;;;10.12;88.77;102888.09;5002992;28;20150;-79
2023/05/27 03:17:49;;;;;;;10.32;4.68;;;;;;;10.28;86.95;102878.06;5007255;28;20037;-79
2023/05/27 03:20:16;;;;;;;9.20;3.50;;;;;;;10.26;86.77;102877.56;5007251;28;20030;-79
2023/05/27 03:22:42;;;;;;;9.77;2.95;;;;;;;10.28;86.91;102875.28;5002593;28;20491;-79
2023/05/27 03:25:07;;;;;;;11.38;3.75;;;;;;;10.14;87.74;102874.59;5019581;28;20033;-79
2023/05/27 03:27:33;;;;;;;12.27;3.60;;;;;;;10.27;86.93;102870.84;5002521;28;20044;-79
2023/05/27 03:29:58;;;;;;;9.07;3.85;;;;;;;10.25;86.87;102873.13;4998103;28;20022;-79
2023/05/27 03:32:24;;;;;;;11.20;3.85;;;;;;;10.29;86.97;102871.38;4996745;28;20038;-79
2023/05/27 03:34:49;;;;;;;14.35;3.28;;;;;;;10.29;86.60;102876.97;5009620;28;20027;-79
2023/05/27 03:37:14;;;;;;;11.43;3.47;;;;;;;10.16;87.91;102866.69;4995669;28;20487;-79
2023/05/27 03:39:40;;;;;;;6.60;3.15;;;;;;;10.17;88.98;102869.16;4993786;28;20080;-79
2023/05/27 03:42:06;;;;;;;15.65;4.40;;;;;;;10.19;87.57;102871.66;5019755;28;20112;-79
2023/05/27 03:44:31;;;;;;;8.80;3.65;;;;;;;10.23;87.77;102863.44;5000114;28;20396;-79
2023/05/27 03:46:57;;;;;;;11.43;5.03;;;;;;;10.08;88.80;102856.34;5000761;28;20034;-79
2023/05/27 03:49:22;;;;;;;9.50;3.85;;;;;;;10.19;87.96;102860.44;5003118;28;20833;-79
2023/05/27 03:51:48;;;;;;;16.25;3.65;;;;;;;10.00;89.91;102851.53;4997642;28;20321;-79
2023/05/27 03:54:13;;;;;;;12.30;3.50;;;;;;;10.08;88.88;102856.34;5004883;28;20547;-79
2023/05/27 03:56:39;;;;;;;13.07;4.28;;;;;;;10.23;87.34;102857.84;4995062;28;20497;-79
2023/05/27 03:59:06;;;;;;;7.97;3.85;;;;;;;10.06;89.04;102853.03;5007495;28;20034;-79
2023/05/27 04:01:31;;;;;;;7.10;3.65;;;;;;;10.05;90.07;102859.75;5020625;28;20057;-79
2023/05/27 04:03:56;;;;;;;5.72;2.78;;;;;;;10.21;88.00;102862.94;5002244;28;20109;-79
2023/05/27 04:06:22;;;;;;;5.68;2.70;;;;;;;10.10;89.35;102857.66;5005797;28;20056;-79
2023/05/27 04:08:47;;;;;;;8.98;3.65;;;;;;;10.17;88.78;102848.75;5005683;28;20030;-79
2023/05/27 04:11:12;;;;;;;7.05;3.35;;;;;;;10.20;87.73;102850.88;5001845;28;20030;-79
2023/05/27 04:13:39;;;;;;;12.60;3.60;;;;;;;10.20;88.71;102853.69;5000160;28;20033;-79
2023/05/27 04:16:04;;;;;;;8.55;3.88;;;;;;;10.10;89.50;102868.03;4993646;28;20034;-79
2023/05/27 04:18:29;;;;;;;7.93;3.10;;;;;;;10.03;90.62;102856.47;5020279;28;20109;-79
2023/05/27 04:20:55;;;;;;;9.80;3.25;;;;;;;10.02;90.75;102864.03;5018728;28;20021;-79
2023/05/27 04:23:20;;;;;;;9.05;3.25;;;;;;;10.14;91.02;102863.38;5020899;28;20059;-79
2023/05/27 04:25:48;;;;;;;9.02;3.53;;;;;;;10.20;89.49;102861.28;5020443;28;20032;-79
2023/05/27 04:28:15;;;;;;;8.38;3.10;;;;;;;10.17;89.70;102857.16;5000829;28;20086;-79
2023/05/27 04:30:40;;;;;;;14.43;3.70;;;;;;;10.13;91.24;102842.16;5000283;28;20025;-79
2023/05/27 04:33:07;;;;;;;9.45;3.92;;;;;;;10.19;90.22;102843.66;5023202;28;20842;-79
2023/05/27 04:35:33;;;;;;;12.32;3.80;;;;;;;10.12;93.12;102846.13;5002068;28;20029;-80
2023/05/27 04:38:00;;;;;;;7.28;2.90;;;;;;;10.12;91.71;102846.13;5020080;28;20368;-80
2023/05/27 04:40:26;;;;;;;11.95;4.32;;;;;;;10.24;90.38;102840.69;5003831;28;20025;-79
2023/05/27 04:42:52;;;;;;;13.27;4.68;;;;;;;10.27;90.24;102836.44;5019018;28;20514;-79
2023/05/27 04:45:18;;;;;;;10.52;3.10;;;;;;;10.16;93.80;102841.50;5016491;28;20029;-79
2023/05/27 04:47:44;;;;;;;11.35;3.55;;;;;;;10.07;93.27;102841.50;5021184;28;20067;-79
2023/05/27 04:50:10;;;;;;;11.98;3.42;;;;;;;10.20;92.54;102848.09;5008615;28;20148;-79
2023/05/27 04:52:41;;;;;;;9.57;3.67;;;;;;;10.29;92.16;102848.97;5019192;28;20475;-79
2023/05/27 04:55:08;;;;;;;7.90;3.30;;;;;;;10.25;92.47;102835.94;5019518;28;20033;-79
2023/05/27 04:57:34;;;;;;;10.27;3.38;;;;;;;10.24;93.67;102846.28;5018495;28;20053;-79
2023/05/27 05:02:38;;;;;;;12.35;3.25;;;;;;;10.34;92.54;102839.59;5016995;28;20665;-79
2023/05/27 05:05:06;;;;;;;8.30;3.67;;;;;;;10.27;93.49;102844.84;5022258;28;20245;-80
2023/05/27 05:07:33;;;;;;;13.35;4.07;;;;;;;10.25;94.01;102839.56;4997075;28;20030;-80
2023/05/27 05:09:58;;;;;;;15.38;4.20;;;;;;;10.36;95.51;102840.91;5000673;28;20028;-80
2023/05/27 05:12:25;;;;;;;11.50;4.43;;;;;;;10.13;97.02;102834.59;4992349;28;20042;-79
2023/05/27 05:14:51;;;;;;;10.82;3.65;;;;;;;10.04;97.93;102835.75;5019742;28;20099;-80
2023/05/27 05:17:23;;;;;;;10.20;3.85;;;;;;;10.16;96.71;102833.09;4996438;28;20026;-79
2023/05/27 05:19:49;;;;;;;8.82;3.30;;;;;;;10.32;95.92;102842.72;5016662;28;20384;-80
2023/05/27 05:22:18;;;;;;;11.45;4.57;;;;;;;10.22;99.49;102829.00;5000034;28;20158;-80
2023/05/27 05:24:44;;;;;;;9.55;2.97;;;;;;;10.44;93.85;102839.28;5013011;28;20030;-80
2023/05/27 05:27:09;;;;;;;10.55;3.33;;;;;;;10.47;94.22;102832.19;5012736;28;20049;-79
2023/05/27 05:29:34;;;;;;;9.30;3.92;;;;;;;10.43;94.83;102831.19;5001421;28;20066;-79
2023/05/27 05:32:00;;;;;;;8.77;2.90;;;;;;;10.52;94.07;102837.59;5014574;28;20053;-79
2023/05/27 05:34:25;;;;;;;17.38;3.70;;;;;;;10.18;98.55;102830.81;5017533;28;20029;-79
2023/05/27 05:36:50;;;;;;;10.70;3.63;;;;;;;10.34;100.00;102823.59;5014420;28;20033;-80
2023/05/27 05:39:16;;;;;;;13.13;4.03;;;;;;;10.21;100.00;102827.38;5019046;28;20083;-79
2023/05/27 05:41:42;;;;;;;16.05;3.50;;;;;;;10.45;100.00;102824.09;5014830;28;20373;-79
2023/05/27 05:44:07;;;;;;;10.75;4.25;;;;;;;10.44;100.00;102827.25;5023534;28;20072;-79
2023/05/27 05:46:32;;;;;;;9.73;3.05;;;;;;;10.56;100.00;102824.59;5018596;28;20520;-79
2023/05/27 05:48:58;;;;;;;9.45;3.72;;;;;;;10.42;100.00;102823.97;5018057;28;20021;-80
2023/05/27 05:51:23;;;;;;;7.68;3.50;;;;;;;10.45;100.00;102823.28;4999315;28;20049;-80
2023/05/27 05:53:48;;;;;;;11.10;4.40;;;;;;;10.57;100.00;102826.25;5001243;28;20025;-79
2023/05/27 05:56:14;;;;;;;12.65;4.38;;;;;;;10.85;96.99;102825.88;5016404;28;20124;-79
2023/05/27 05:58:39;;;;;;;15.00;3.67;;;;;;;10.92;96.41;102820.59;5001153;28;20108;-79
2023/05/27 06:01:05;;;;;;;11.90;3.78;;;;;;;10.78;100.00;102818.81;5015731;28;20022;-80
2023/05/27 06:03:30;;;;;;;11.95;3.63;;;;;;;10.88;99.52;102819.59;5021208;28;20029;-80
2023/05/27 06:05:55;;;;;;;11.88;3.88;;;;;;;10.90;100.00;102817.28;5020825;28;20316;-79
2023/05/27 06:08:21;;;;;;;9.38;4.00;;;;;;;10.73;100.00;102818.16;5021489;28;20106;-79
2023/05/27 06:10:46;;;;;;;12.88;4.32;;;;;;;10.60;100.00;102819.97;5001025;28;20022;-79
2023/05/27 06:13:12;;;;;;;7.80;4.15;;;;;;;10.88;100.00;102814.00;5018894;28;20064;-80
2023/05/27 06:15:40;;;;;;;14.05;3.78;;;;;;;10.89;100.00;102808.06;4997715;28;20571;-79
2023/05/27 06:18:06;;;;;;;13.40;4.53;;;;;;;10.77;100.00;102813.53;5002744;28;20128;-80
2023/05/27 06:20:31;;;;;;;16.60;4.63;;;;;;;10.85;100.00;102814.69;5017884;28;20239;-81
2023/05/27 06:22:56;;;;;;;9.57;3.78;;;;;;;11.06;100.00;102810.00;5021543;28;20202;-81
2023/05/27 06:25:21;;;;;;;14.30;3.92;;;;;;;10.93;100.00;102802.63;5017863;28;20033;-81
2023/05/27 06:27:47;;;;;;;17.88;4.53;;;;;;;11.01;100.00;102803.78;5005053;28;20114;-81
2023/05/27 06:30:12;;;;;;;16.83;5.13;;;;;;;11.21;100.00;102793.81;5013560;28;20029;-80
2023/05/27 06:32:38;;;;;;;16.30;3.50;;;;;;;11.37;100.00;102797.69;5005520;28;20028;-80
2023/05/27 06:35:04;;;;;;;20.15;5.22;;;;;;;11.13;100.00;102787.06;5021288;28;20028;-80
2023/05/27 06:37:29;;;;;;;10.43;3.67;;;;;;;11.18;100.00;102790.50;5022786;28;20083;-80
2023/05/27 06:39:55;;;;;;;10.38;4.25;;;;;;;11.33;100.00;102786.34;5015456;28;20025;-80
2023/05/27 06:42:22;;;;;;;15.93;4.85;;;;;;;11.32;100.00;102789.47;5023000;28;20129;-80
2023/05/27 06:44:47;;;;;;;16.75;4.85;;;;;;;11.39;100.00;102786.97;5019018;28;20550;-80
2023/05/27 06:47:12;;;;;;;22.42;4.57;;;;;;;11.39;100.00;102792.59;5001098;28;20033;-80
2023/05/27 06:49:38;;;;;;;12.27;4.22;;;;;;;11.60;100.00;102790.66;5016593;28;20025;-80
2023/05/27 06:52:03;;;;;;;12.05;4.28;;;;;;;11.76;100.00;102793.72;4995748;28;20037;-80
2023/05/27 06:54:29;;;;;;;16.02;3.67;;;;;;;11.72;100.00;102789.09;4989844;28;20464;-80
2023/05/27 06:56:54;;;;;;;16.60;4.93;;;;;;;11.83;100.00;102790.38;5005141;28;20061;-80
2023/05/27 06:59:20;;;;;;;14.45;3.88;;;;;;;11.96;100.00;102783.69;5009492;28;20060;-80
2023/05/27 07:01:45;;;;;;;20.27;4.80;;;;;;;11.91;100.00;102783.91;4996161;28;20028;-80
2023/05/27 07:04:10;;;;;;;11.45;4.22;;;;;;;12.01;100.00;102782.66;5011224;28;20518;-80
2023/05/27 07:06:37;;;;;;;18.08;4.43;;;;;;;12.06;98.36;102776.03;5013818;28;20026;-80
2023/05/27 07:09:02;;;;;;;17.17;4.93;;;;;;;12.32;100.00;102775.81;4988760;28;20064;-80
2023/05/27 07:11:28;;;;;;;13.15;4.43;;;;;;;12.33;100.00;102772.69;4998474;28;20289;-80
2023/05/27 07:13:53;;;;;;;22.98;5.45;;;;;;;12.38;100.00;102775.25;5008018;28;20392;-80
2023/05/27 07:16:19;;;;;;;18.20;4.55;;;;;;;12.45;97.78;102771.09;5006724;28;20033;-80
2023/05/27 07:18:44;;;;;;;16.50;4.68;;;;;;;12.67;100.00;102770.72;5008180;28;20026;-80
2023/05/27 07:21:10;;;;;;;14.63;4.25;;;;;;;12.78;100.00;102766.28;5017292;28;20543;-80
2023/05/27 07:23:35;;;;;;;18.67;4.78;;;;;;;12.78;99.81;102768.28;4999800;28;20036;-80
2023/05/27 07:26:01;;;;;;;12.10;4.78;;;;;;;12.82;97.16;102770.03;4999985;28;20030;-80
2023/05/27 07:28:26;;;;;;;7.82;3.70;;;;;;;12.89;95.00;102760.22;5011165;28;20137;-80
2023/05/27 07:30:51;;;;;;;19.25;5.47;;;;;;;12.95;97.46;102754.03;5010691;28;20037;-81
2023/05/27 07:33:17;;;;;;;13.90;4.15;;;;;;;12.92;97.23;102753.88;5016737;28;20026;-80
2023/05/27 07:35:42;;;;;;;11.10;4.05;;;;;;;13.15;97.34;102757.91;4996487;28;20120;-80
2023/05/27 07:38:08;;;;;;;19.00;4.85;;;;;;;13.17;95.56;102758.38;5012811;28;20037;-80
2023/05/27 07:40:33;;;;;;;16.05;4.68;;;;;;;13.32;94.98;102758.88;4994785;28;20041;-80
2023/05/27 07:42:59;;;;;;;13.70;4.50;;;;;;;13.58;94.82;102756.53;5002816;28;20026;-80
2023/05/27 07:45:24;;;;;;;14.40;5.32;;;;;;;13.29;95.73;102748.34;5019795;28;20114;-80
2023/05/27 07:47:49;;;;;;;11.90;4.47;;;;;;;13.50;95.35;102740.59;5020026;28;20502;-80
2023/05/27 07:50:15;;;;;;;14.00;4.75;;;;;;;13.58;94.39;102747.28;5020559;28;20033;-80
2023/05/27 07:52:41;;;;;;;12.05;5.63;;;;;;;13.68;93.77;102741.19;5021955;28;20886;-80
2023/05/27 07:55:07;;;;;;;17.95;4.10;;;;;;;13.85;90.90;102739.25;5020024;28;20033;-80
2023/05/27 07:57:32;;;;;;;13.73;4.95;;;;;;;13.97;92.05;102731.59;5001104;28;20411;-80
2023/05/27 07:59:58;;;;;;;17.60;5.60;;;;;;;13.94;92.93;102732.31;5011368;28;20033;-81
2023/05/27 08:02:25;;;;;;;14.07;6.15;;;;;;;14.13;91.79;102733.69;5002561;28;20033;-80
2023/05/27 08:04:51;;;;;;;19.33;5.38;;;;;;;14.07;92.47;102723.84;5013465;28;20445;-80
2023/05/27 08:07:16;;;;;;;14.35;6.00;;;;;;;14.82;88.65;102732.44;5018864;28;20528;-80
2023/05/27 08:09:42;;;;;;;15.10;5.10;;;;;;;14.61;88.64;102731.84;5018484;28;20033;-80
2023/05/27 08:12:07;;;;;;;11.68;6.00;;;;;;;14.35;86.75;102733.09;4999785;28;20452;-80
2023/05/27 08:14:33;;;;;;;14.77;4.32;;;;;;;14.45;87.75;102728.97;5003950;28;20034;-80
2023/05/27 08:16:59;;;;;;;13.55;5.25;;;;;;;14.50;86.20;102728.69;5014611;28;20046;-82
2023/05/27 08:19:24;;;;;;;16.95;4.65;;;;;;;14.92;84.91;102724.59;5020527;28;20060;-81
2023/05/27 08:21:49;;;;;;;19.42;5.53;;;;;;;14.74;85.74;102716.50;5002146;28;20132;-81
2023/05/27 08:24:15;;;;;;;17.17;5.03;;;;;;;14.91;85.81;102711.69;5016472;28;20164;-81
2023/05/27 08:26:40;;;;;;;20.33;5.30;;;;;;;15.38;83.28;102719.31;5014502;28;20044;-80
2023/05/27 08:29:05;;;;;;;14.50;5.28;;;;;;;15.19;83.39;102712.41;5008730;28;20387;-81
2023/05/27 08:31:31;;;;;;;13.48;4.95;;;;;;;15.01;83.83;102716.75;5017341;28;20035;-81
2023/05/27 08:33:56;;;;;;;14.43;5.47;;;;;;;15.32;84.95;102712.28;5000539;28;20026;-81
2023/05/27 08:36:22;;;;;;;14.80;4.47;;;;;;;15.17;84.75;102708.31;4997045;28;20037;-81
2023/05/27 08:38:47;;;;;;;16.52;5.75;;;;;;;15.12;84.69;102700.94;5002960;28;20025;-81
2023/05/27 08:41:14;;;;;;;15.75;4.65;;;;;;;15.13;84.62;102696.13;4996928;28;20615;-81
2023/05/27 08:43:41;;;;;;;22.67;5.72;;;;;;;15.28;85.06;102694.47;4999891;28;20439;-81
2023/05/27 08:46:07;;;;;;;14.02;4.75;;;;;;;15.48;84.18;102684.88;4995439;28;20522;-81
2023/05/27 08:48:33;;;;;;;12.05;4.60;;;;;;;15.81;80.84;102686.44;5020555;28;20037;-81
2023/05/27 08:51:00;;;;;;;25.52;5.63;;;;;;;15.69;82.35;102689.38;5003832;28;20029;-81
2023/05/27 08:53:26;;;;;;;15.15;5.47;;;;;;;15.54;82.21;102677.75;4993792;28;20419;-81
2023/05/27 08:55:54;;;;;;;13.98;4.93;;;;;;;15.71;86.86;102685.00;5015657;28;20022;-81
2023/05/27 08:58:20;;;;;;;15.38;6.10;;;;;;;15.82;78.87;102676.78;5026961;28;20606;-81
2023/05/27 09:00:45;;;;;;;13.48;5.60;;;;;;;15.83;81.34;102667.09;5023874;28;20100;-81
2023/05/27 09:03:11;;;;;;;12.60;4.07;;;;;;;15.74;82.29;102666.50;5024591;28;20065;-81
2023/05/27 09:05:37;;;;;;;19.63;5.43;;;;;;;15.73;80.88;102667.72;5000836;28;20545;-81
2023/05/27 09:08:02;;;;;;;13.05;5.30;;;;;;;15.97;80.94;102661.75;5021869;28;20052;-81
2023/05/27 09:10:41;;;;;;;15.20;5.00;;;;;;;15.85;80.29;102665.56;5017711;28;20045;-81
2023/05/27 09:13:07;;;;;;;9.98;4.38;;;;;;;15.78;85.05;102653.28;4997100;28;20394;-81
2023/05/27 09:15:33;;;;;;;19.55;5.70;;;;;;;15.58;83.91;102658.91;5014800;28;20507;-81
2023/05/27 09:17:59;;;;;;;12.82;5.68;;;;;;;15.51;83.50;102660.72;5014521;28;20056;-81
2023/05/27 09:20:26;;;;;;;17.70;5.95;;;;;;;15.65;80.61;102647.75;5016946;28;20069;-81
2023/05/27 09:22:57;;;;;;;17.63;5.68;;;;;;;16.03;79.91;102643.31;5014910;28;20025;-81
2023/05/27 09:25:24;;;;;;;16.05;5.15;;;;;;;16.49;75.67;102642.59;4999126;28;20446;-81
2023/05/27 09:27:49;;;;;;;17.08;5.70;;;;;;;16.04;76.82;102642.16;5020800;28;20527;-81
2023/05/27 09:30:18;;;;;;;14.77;5.93;;;;;;;16.22;78.81;102650.16;5023521;28;20026;-81
2023/05/27 09:32:44;;;;;;;11.90;5.40;;;;;;;16.42;75.96;102639.63;5021521;28;20025;-81
2023/05/27 09:35:11;;;;;;;15.75;6.25;;;;;;;16.81;75.61;102643.16;4993177;28;20034;-81
2023/05/27 09:37:36;;;;;;;14.07;5.38;;;;;;;16.89;74.88;102637.63;5002080;28;20559;-81
2023/05/27 09:40:10;;;;;;;14.98;5.30;;;;;;;16.73;73.81;102641.38;5013124;28;20309;-81
2023/05/27 09:42:43;;;;;;;19.67;6.45;;;;;;;16.49;74.49;102636.94;5013717;28;20044;-81
2023/05/27 09:45:15;;;;;;;13.60;5.25;;;;;;;16.75;74.72;102633.34;5020621;28;20503;-81
2023/05/27 09:47:46;;;;;;;17.83;6.20;;;;;;;16.92;77.42;102632.03;5001958;28;20534;-81
2023/05/27 09:50:14;;;;;;;14.55;5.55;;;;;;;16.72;74.43;102628.47;5014394;28;20124;-81
2023/05/27 09:52:41;;;;;;;12.45;4.80;;;;;;;17.17;73.86;102637.28;5022357;28;20025;-81
2023/05/27 09:55:08;;;;;;;17.92;6.70;;;;;;;17.10;73.16;102635.16;5011435;28;20151;-82
2023/05/27 09:57:35;;;;;;;21.90;6.60;;;;;;;17.41;70.12;102636.00;5018379;28;20107;-81
2023/05/27 10:00:08;;;;;;;17.13;5.55;;;;;;;17.28;73.31;102633.38;5009002;28;20033;-81
2023/05/27 10:02:35;;;;;;;16.48;6.50;;;;;;;17.26;71.62;102630.13;5020340;28;20495;-82
2023/05/27 10:05:02;;;;;;;18.95;5.45;;;;;;;16.88;73.05;102627.53;5010214;28;20413;-82
2023/05/27 10:07:28;;;;;;;22.30;7.70;;;;;;;17.49;70.79;102626.41;5020268;28;20062;-81
2023/05/27 10:09:54;;;;;;;12.95;5.93;;;;;;;17.63;74.51;102620.94;5013639;28;20487;-81
2023/05/27 10:12:20;;;;;;;19.42;6.93;;;;;;;17.97;69.97;102618.16;5016262;28;20031;-81
2023/05/27 10:14:47;;;;;;;14.80;5.53;;;;;;;18.00;70.84;102614.53;5011780;28;20133;-82
2023/05/27 10:17:13;;;;;;;18.67;6.40;;;;;;;17.68;69.90;102617.75;4997275;28;20061;-82
2023/05/27 10:19:49;;;;;;;13.50;5.03;;;;;;;18.63;64.96;102618.41;5011022;28;20105;-82
2023/05/27 10:22:14;;;;;;;13.07;6.18;;;;;;;18.87;68.30;102617.03;5012595;28;20391;-81
2023/05/27 10:24:40;;;;;;;16.02;5.95;;;;;;;18.32;69.85;102608.41;5016485;28;20022;-82
2023/05/27 10:27:06;;;;;;;10.63;6.05;;;;;;;18.45;64.88;102608.94;5020130;28;20025;-82
2023/05/27 10:29:38;;;;;;;16.23;5.40;;;;;;;18.34;65.81;102608.84;5022788;28;20120;-82
2023/05/27 10:32:04;;;;;;;;;;;;;;;18.24;65.70;102598.19;5020677;28;20026;-82
2023/05/27 10:34:37;;;;;;;11.77;5.75;;;;;;;18.28;66.12;102599.06;5025048;28;19974;-82
2023/05/27 10:37:03;;;;;;;15.60;5.57;;;;;;;18.77;63.97;102603.53;5024046;28;20030;-82
2023/05/27 10:39:28;;;;;;;16.10;5.25;;;;;;;18.71;69.73;102595.78;5002243;28;20032;-82
2023/05/27 10:41:55;;;;;;;19.05;5.85;;;;;;;18.49;66.36;102581.44;5005009;28;20033;-82
2023/05/27 10:44:35;;;;;;;11.27;5.22;;;;;;;18.93;64.15;102588.25;5001626;28;20029;-82
2023/05/27 10:47:11;;;;;;;16.08;6.75;;;;;;;18.98;62.95;102580.19;5014738;28;20132;-82
2023/05/27 10:49:39;;;;;;;18.73;6.13;;;;;;;18.96;63.71;102582.63;5015022;28;20443;-81
2023/05/27 10:52:15;;;;;;;11.93;5.45;;;;;;;19.52;63.39;102574.81;5020905;28;20557;-82
2023/05/27 10:54:52;;;;;;;19.77;6.22;;;;;;;19.24;62.97;102562.09;5002926;28;20065;-81
2023/05/27 10:57:18;;;;;;;15.38;6.28;;;;;;;19.95;61.13;102568.50;5005678;28;20083;-82
2023/05/27 10:59:50;;;;;;;12.68;6.53;;;;;;;19.76;58.26;102567.63;5019778;28;20037;-82
2023/05/27 11:02:16;;;;;;;16.75;5.07;;;;;;;19.75;61.60;102551.78;5023524;28;20044;-81
2023/05/27 11:04:42;;;;;;;12.10;5.00;;;;;;;20.51;57.59;102562.06;5016332;28;20041;-81
2023/05/27 11:07:07;;;;;;;14.75;5.30;;;;;;;19.89;58.12;102554.69;5010767;28;20519;-82
2023/05/27 11:09:46;;;;;;;16.40;6.38;;;;;;;20.00;57.49;102546.16;5013226;28;20593;-81
2023/05/27 11:12:22;;;;;;;10.15;4.88;;;;;;;19.76;63.67;102544.09;5011812;28;20053;-82
2023/05/27 11:14:51;;;;;;;10.23;4.72;;;;;;;20.39;56.46;102548.25;5006525;28;20042;-82
2023/05/27 11:17:17;;;;;;;13.75;5.72;;;;;;;20.60;56.01;102536.09;5010714;28;20504;-82
2023/05/27 11:19:45;;;;;;;15.52;6.50;;;;;;;20.35;54.96;102536.06;4996293;28;20456;-81